createdAt,value
2023-02-28T00:00:21.249Z,24.27
2023-02-28T00:03:08.895Z,23.60
2023-02-28T00:05:56.426Z,24.15
2023-02-28T00:08:44.034Z,26.02
2023-02-28T00:11:32.761Z,23.77
2023-02-28T00:14:20.429Z,22.58
2023-02-28T00:17:07.861Z,24.48
2023-02-28T00:19:55.314Z,21.75
2023-02-28T00:22:44.980Z,23.73
2023-02-28T00:25:32.491Z,24.95
2023-02-28T00:28:21.612Z,22.98
2023-02-28T00:31:09.325Z,24.15
2023-02-28T00:33:56.989Z,21.83
2023-02-28T00:36:47.295Z,23.17
2023-02-28T00:39:36.906Z,30.02
2023-02-28T00:42:24.695Z,24.48
2023-02-28T00:45:13.954Z,23.58
2023-02-28T00:48:01.712Z,25.48
2023-02-28T00:50:51.512Z,31.88
2023-02-28T00:53:38.977Z,28.17
2023-02-28T00:56:26.562Z,33.28
2023-02-28T00:59:14.441Z,31.33
2023-02-28T01:02:03.427Z,29.30
2023-02-28T01:04:51.518Z,29.77
2023-02-28T01:07:39.478Z,31.42
2023-02-28T01:10:28.059Z,24.10
2023-02-28T01:13:16.301Z,27.42
2023-02-28T01:16:03.697Z,26.05
2023-02-28T01:18:52.622Z,24.77
2023-02-28T01:21:40.167Z,28.13
2023-02-28T01:24:27.850Z,29.38
2023-02-28T01:27:15.601Z,23.45
2023-02-28T01:30:03.441Z,25.80
2023-02-28T01:32:52.585Z,23.60
2023-02-28T01:35:41.686Z,25.30
2023-02-28T01:38:29.869Z,26.23
2023-02-28T01:41:20.167Z,23.75
2023-02-28T01:44:09.882Z,44.08
2023-02-28T01:46:57.186Z,34.20
2023-02-28T01:49:45.266Z,28.88
2023-02-28T01:52:36.143Z,27.98
2023-02-28T01:55:29.546Z,24.85
2023-02-28T01:58:19.309Z,30.33
2023-02-28T02:01:07.719Z,26.23
2023-02-28T02:03:57.710Z,30.27
2023-02-28T02:06:49.735Z,30.90
2023-02-28T02:09:38.767Z,27.38
2023-02-28T02:12:35.548Z,27.40
2023-02-28T02:15:28.843Z,25.88
2023-02-28T02:18:25.436Z,29.33
2023-02-28T02:21:49.223Z,33.80
2023-02-28T02:25:03.983Z,29.60
2023-02-28T02:28:18.317Z,31.38
2023-02-28T02:31:30.619Z,29.27
2023-02-28T02:34:39.225Z,29.88
2023-02-28T02:37:33.512Z,27.25
2023-02-28T02:40:24.105Z,28.05
2023-02-28T02:43:17.754Z,23.33
2023-02-28T02:46:10.610Z,27.33
2023-02-28T02:49:01.431Z,27.38
2023-02-28T02:51:51.855Z,26.13
2023-02-28T02:54:42.541Z,28.77
2023-02-28T02:57:36.379Z,23.73
2023-02-28T03:00:28.398Z,27.48
2023-02-28T03:03:21.751Z,26.02
2023-02-28T03:06:09.435Z,24.50
2023-02-28T03:09:01.969Z,23.38
2023-02-28T03:11:50.680Z,26.95
2023-02-28T03:14:50.799Z,25.83
2023-02-28T03:17:59.877Z,28.05
2023-02-28T03:20:58.221Z,29.20
2023-02-28T03:23:55.503Z,28.25
2023-02-28T03:26:50.931Z,28.35
2023-02-28T03:29:42.478Z,26.40
2023-02-28T03:32:35.411Z,28.20
2023-02-28T03:35:25.257Z,29.55
2023-02-28T03:38:19.216Z,25.30
2023-02-28T03:41:11.802Z,33.42
2023-02-28T03:44:04.835Z,25.15
2023-02-28T03:46:57.843Z,24.45
2023-02-28T03:49:51.382Z,21.08
2023-02-28T03:52:45.636Z,22.33
2023-02-28T03:55:39.552Z,29.15
2023-02-28T03:58:33.387Z,30.60
2023-02-28T04:01:28.475Z,30.98
2023-02-28T04:04:18.075Z,23.75
2023-02-28T04:07:07.722Z,25.00
2023-02-28T04:09:55.104Z,27.58
2023-02-28T04:12:42.669Z,25.08
2023-02-28T04:15:30.357Z,27.27
2023-02-28T04:18:19.123Z,25.63
2023-02-28T04:21:07.297Z,23.88
2023-02-28T04:23:55.428Z,22.67
2023-02-28T04:26:45.414Z,21.38
2023-02-28T04:29:34.014Z,26.35
2023-02-28T04:32:21.576Z,25.65
2023-02-28T04:35:12.479Z,23.75
2023-02-28T04:38:00.121Z,28.67
2023-02-28T04:40:47.696Z,21.60
2023-02-28T04:43:35.227Z,24.42
2023-02-28T04:46:22.936Z,28.88
2023-02-28T04:49:12.873Z,22.13
2023-02-28T04:52:02.072Z,23.58
2023-02-28T04:54:49.829Z,28.48
2023-02-28T04:57:37.314Z,26.35
2023-02-28T05:00:25.464Z,31.92
2023-02-28T05:03:13.390Z,28.42
2023-02-28T05:06:01.111Z,29.73
2023-02-28T05:08:49.979Z,31.13
2023-02-28T05:11:38.322Z,29.40
2023-02-28T05:14:26.666Z,43.03
2023-02-28T05:17:14.411Z,42.80
2023-02-28T05:20:14.656Z,38.67
2023-02-28T05:23:04.445Z,37.97
2023-02-28T05:25:54.040Z,34.75
2023-02-28T05:28:41.607Z,33.38
2023-02-28T05:31:29.309Z,30.48
2023-02-28T05:34:17.217Z,33.60
2023-02-28T05:37:04.851Z,30.65
2023-02-28T05:39:52.557Z,30.88
2023-02-28T05:42:41.644Z,36.90
2023-02-28T05:45:29.408Z,37.15
2023-02-28T05:48:17.859Z,44.45
2023-02-28T05:51:06.482Z,41.58
2023-02-28T05:53:54.299Z,35.50
2023-02-28T05:56:45.042Z,35.40
2023-02-28T05:59:34.142Z,36.50
2023-02-28T06:02:22.009Z,44.33
2023-02-28T06:05:14.869Z,37.47
2023-02-28T06:08:02.485Z,45.28
2023-02-28T06:10:50.146Z,43.55
2023-02-28T06:13:37.647Z,36.65
2023-02-28T06:16:27.353Z,54.35
2023-02-28T06:19:16.097Z,41.83
2023-02-28T06:22:03.704Z,45.53
2023-02-28T06:24:51.388Z,37.63
2023-02-28T06:27:39.199Z,44.65
2023-02-28T06:30:28.117Z,41.80
2023-02-28T06:33:17.236Z,39.95
2023-02-28T06:36:05.596Z,43.38
2023-02-28T06:38:55.842Z,42.78
2023-02-28T06:41:54.627Z,41.78
2023-02-28T06:44:44.042Z,39.22
2023-02-28T06:47:33.636Z,33.47
2023-02-28T06:50:22.857Z,47.90
2023-02-28T06:53:10.554Z,46.10
2023-02-28T06:55:58.318Z,42.83
2023-02-28T06:58:49.412Z,47.00
2023-02-28T07:01:36.893Z,44.35
2023-02-28T07:04:25.020Z,40.25
2023-02-28T07:07:13.802Z,39.97
2023-02-28T07:10:01.638Z,45.42
2023-02-28T07:12:49.265Z,54.25
2023-02-28T07:15:39.340Z,51.47
2023-02-28T07:18:29.228Z,50.78
2023-02-28T07:21:17.448Z,48.53
2023-02-28T07:24:06.884Z,41.25
2023-02-28T07:26:54.204Z,38.83
2023-02-28T07:29:41.818Z,32.55
2023-02-28T07:32:29.449Z,28.85
2023-02-28T07:35:17.326Z,32.65
2023-02-28T07:38:05.563Z,24.10
2023-02-28T07:40:54.366Z,28.88
2023-02-28T07:43:42.225Z,27.52
2023-02-28T07:46:30.974Z,22.75
2023-02-28T07:49:18.687Z,22.95
2023-02-28T07:52:07.217Z,18.50
2023-02-28T07:54:54.976Z,21.80
2023-02-28T07:57:44.555Z,18.58
2023-02-28T08:00:33.144Z,18.48
2023-02-28T08:03:21.898Z,19.55
2023-02-28T08:06:16.968Z,18.92
2023-02-28T08:09:04.680Z,16.40
2023-02-28T08:11:52.290Z,147.98
2023-02-28T08:14:41.725Z,30.35
2023-02-28T08:17:29.370Z,20.08
2023-02-28T08:20:16.692Z,20.45
2023-02-28T08:23:04.413Z,18.13
2023-02-28T08:25:56.207Z,16.58
2023-02-28T08:28:43.550Z,20.83
2023-02-28T08:31:32.629Z,28.25
2023-02-28T08:34:20.159Z,19.73
2023-02-28T08:37:07.522Z,20.48
2023-02-28T08:39:56.507Z,18.92
2023-02-28T08:42:44.000Z,17.27
2023-02-28T08:45:31.757Z,18.23
2023-02-28T08:48:21.006Z,18.85
2023-02-28T08:51:11.220Z,19.42
2023-02-28T08:54:01.623Z,20.15
2023-02-28T08:56:49.383Z,19.77
2023-02-28T08:59:37.605Z,18.40
2023-02-28T09:02:25.382Z,14.82
2023-02-28T09:05:14.296Z,17.98
2023-02-28T09:08:02.042Z,14.90
2023-02-28T09:10:49.511Z,21.08
2023-02-28T09:13:37.074Z,19.92
2023-02-28T09:16:24.550Z,19.83
2023-02-28T09:19:13.251Z,19.60
2023-02-28T09:22:01.943Z,14.82
2023-02-28T09:24:49.475Z,23.02
2023-02-28T09:27:38.188Z,17.70
2023-02-28T09:30:25.495Z,15.93
2023-02-28T09:33:13.152Z,16.85
2023-02-28T09:36:02.298Z,16.45
2023-02-28T09:38:52.470Z,20.55
2023-02-28T09:41:48.490Z,13.50
2023-02-28T09:44:41.099Z,12.37
2023-02-28T09:47:34.243Z,15.98
2023-02-28T09:50:34.511Z,11.82
2023-02-28T09:53:28.143Z,13.02
2023-02-28T09:56:26.844Z,14.43
2023-02-28T09:59:27.860Z,9.65
2023-02-28T10:02:36.338Z,10.18
2023-02-28T10:05:27.518Z,11.60
2023-02-28T10:08:18.075Z,10.90
2023-02-28T10:11:08.889Z,13.73
2023-02-28T10:14:06.799Z,13.48
2023-02-28T10:16:57.713Z,11.90
2023-02-28T10:19:54.050Z,11.70
2023-02-28T10:22:52.434Z,11.95
2023-02-28T10:25:41.060Z,13.18
2023-02-28T10:28:31.877Z,15.07
2023-02-28T10:31:24.116Z,17.30
2023-02-28T10:34:14.947Z,21.55
2023-02-28T10:37:08.396Z,16.08
2023-02-28T10:39:56.753Z,22.20
2023-02-28T10:42:44.269Z,19.45
2023-02-28T10:45:35.834Z,17.85
2023-02-28T10:48:34.949Z,18.90
2023-02-28T10:51:25.049Z,16.05
2023-02-28T10:54:21.177Z,17.33
2023-02-28T10:57:25.484Z,17.90
2023-02-28T11:00:19.891Z,16.48
2023-02-28T11:03:26.451Z,14.60
2023-02-28T11:06:20.696Z,16.92
2023-02-28T11:09:22.840Z,18.50
2023-02-28T11:12:25.481Z,16.33
2023-02-28T11:15:25.858Z,16.52
2023-02-28T11:18:25.004Z,13.15
2023-02-28T11:21:21.095Z,13.40
2023-02-28T11:24:18.526Z,18.83
2023-02-28T11:27:06.219Z,16.48
2023-02-28T11:29:53.602Z,15.73
2023-02-28T11:32:51.074Z,17.05
2023-02-28T11:35:41.713Z,16.13
2023-02-28T11:38:30.855Z,16.25
2023-02-28T11:41:44.078Z,19.05
2023-02-28T11:44:45.970Z,17.83
2023-02-28T11:47:40.720Z,16.88
2023-02-28T11:50:44.189Z,17.75
2023-02-28T11:53:52.759Z,12.80
2023-02-28T11:56:45.865Z,11.80
2023-02-28T11:59:54.379Z,11.57
2023-02-28T12:02:56.801Z,12.88
2023-02-28T12:05:47.891Z,12.77
2023-02-28T12:08:56.357Z,13.65
2023-02-28T12:11:53.415Z,16.27
2023-02-28T12:14:59.519Z,18.13
2023-02-28T12:18:05.652Z,14.32
2023-02-28T12:21:00.986Z,13.63
2023-02-28T12:24:20.916Z,15.00
2023-02-28T12:27:12.390Z,13.85
2023-02-28T12:30:04.662Z,15.02
2023-02-28T12:32:56.493Z,15.60
2023-02-28T12:35:50.356Z,17.55
2023-02-28T12:38:43.338Z,19.92
2023-02-28T12:41:41.259Z,20.48
2023-02-28T12:44:33.422Z,18.75
2023-02-28T12:47:21.243Z,17.88
2023-02-28T12:50:12.807Z,17.10
2023-02-28T12:53:05.642Z,21.10
2023-02-28T12:56:00.154Z,19.40
2023-02-28T12:58:53.873Z,22.33
2023-02-28T13:02:12.836Z,20.75
2023-02-28T13:05:43.246Z,22.67
2023-02-28T13:09:01.372Z,20.08
2023-02-28T13:11:50.439Z,19.33
2023-02-28T13:14:40.543Z,17.08
2023-02-28T13:17:28.097Z,14.90
2023-02-28T13:20:21.533Z,15.45
2023-02-28T13:23:57.963Z,18.23
2023-02-28T13:27:25.541Z,23.08
2023-02-28T13:30:50.544Z,19.30
2023-02-28T13:34:00.504Z,20.27
2023-02-28T13:36:48.045Z,17.13
2023-02-28T13:39:50.129Z,13.93
2023-02-28T13:42:39.074Z,14.80
2023-02-28T13:45:30.985Z,19.38
2023-02-28T13:48:21.566Z,16.58
2023-02-28T13:51:41.949Z,17.15
2023-02-28T13:54:41.820Z,14.82
2023-02-28T13:57:44.721Z,13.48
2023-02-28T14:00:47.925Z,17.83
2023-02-28T14:03:47.542Z,14.43
2023-02-28T14:06:37.434Z,15.95
2023-02-28T14:09:29.481Z,15.10
2023-02-28T14:12:55.666Z,14.20
2023-02-28T14:15:58.562Z,14.60
2023-02-28T14:18:53.253Z,16.23
2023-02-28T14:21:46.005Z,13.00
2023-02-28T14:25:13.868Z,32.78
2023-02-28T14:28:12.956Z,21.00
2023-02-28T14:31:09.066Z,17.23
2023-02-28T14:34:15.520Z,18.97
2023-02-28T14:37:05.569Z,16.03
2023-02-28T14:39:54.618Z,14.18
2023-02-28T14:42:44.972Z,13.98
2023-02-28T14:45:34.090Z,14.65
2023-02-28T14:48:24.543Z,13.80
2023-02-28T14:51:13.247Z,13.52
2023-02-28T14:54:03.475Z,12.10
2023-02-28T14:56:53.117Z,10.98
2023-02-28T14:59:40.967Z,17.08
2023-02-28T15:02:32.156Z,13.02
2023-02-28T15:05:29.173Z,12.82
2023-02-28T15:08:18.396Z,11.50
2023-02-28T15:11:09.778Z,10.90
2023-02-28T15:13:59.067Z,12.20
2023-02-28T15:16:48.243Z,12.13
2023-02-28T15:19:41.627Z,8.93
2023-02-28T15:22:35.666Z,10.93
2023-02-28T15:25:24.438Z,13.38
2023-02-28T15:28:17.747Z,12.25
2023-02-28T15:31:23.904Z,13.52
2023-02-28T15:34:23.248Z,14.30
2023-02-28T15:37:32.011Z,11.68
2023-02-28T15:40:26.032Z,12.88
2023-02-28T15:43:18.403Z,9.88
2023-02-28T15:46:10.671Z,13.10
2023-02-28T15:48:59.185Z,13.13
2023-02-28T15:51:46.843Z,15.90
2023-02-28T15:54:36.831Z,15.90
2023-02-28T15:57:27.604Z,13.32
2023-02-28T16:00:18.030Z,19.50
2023-02-28T16:03:28.554Z,22.83
2023-02-28T16:06:38.429Z,23.20
2023-02-28T16:09:25.914Z,17.48
2023-02-28T16:12:14.716Z,18.73
2023-02-28T16:15:07.902Z,16.40
2023-02-28T16:17:56.844Z,18.27
2023-02-28T16:20:45.812Z,35.20
2023-02-28T16:23:33.396Z,26.20
2023-02-28T16:26:24.898Z,23.90
2023-02-28T16:29:18.423Z,24.00
2023-02-28T16:32:07.889Z,23.65
2023-02-28T16:34:55.809Z,29.27
2023-02-28T16:37:44.609Z,28.98
2023-02-28T16:40:37.377Z,34.40
2023-02-28T16:43:27.366Z,60.35
2023-02-28T16:46:15.006Z,70.15
2023-02-28T16:49:02.477Z,44.78
2023-02-28T16:51:49.939Z,46.72
2023-02-28T16:54:38.769Z,35.40
2023-02-28T16:57:26.422Z,36.47
2023-02-28T17:00:16.083Z,38.10
2023-02-28T17:03:05.751Z,35.10
2023-02-28T17:05:54.556Z,32.28
2023-02-28T17:08:42.573Z,34.67
2023-02-28T17:11:32.116Z,37.92
2023-02-28T17:14:19.930Z,32.38
2023-02-28T17:17:08.093Z,32.67
2023-02-28T17:19:55.764Z,31.75
2023-02-28T17:22:43.183Z,35.90
2023-02-28T17:25:30.548Z,30.98
2023-02-28T17:28:19.329Z,26.20
2023-02-28T17:31:07.348Z,31.92
2023-02-28T17:33:55.476Z,28.15
2023-02-28T17:36:43.013Z,33.72
2023-02-28T17:39:31.914Z,31.92
2023-02-28T17:42:21.152Z,34.58
2023-02-28T17:45:10.786Z,40.38
2023-02-28T17:47:58.622Z,39.30
2023-02-28T17:50:46.130Z,39.33
2023-02-28T17:53:33.575Z,42.03
2023-02-28T17:56:24.134Z,40.28
2023-02-28T17:59:13.702Z,37.05
2023-02-28T18:02:02.592Z,39.20
2023-02-28T18:04:50.041Z,37.90
2023-02-28T18:07:39.326Z,48.90
2023-02-28T18:10:28.438Z,44.42
2023-02-28T18:13:16.105Z,48.38
2023-02-28T18:16:03.531Z,107.22
2023-02-28T18:18:53.320Z,93.88
2023-02-28T18:21:41.042Z,123.13
2023-02-28T18:24:28.886Z,130.07
2023-02-28T18:27:16.425Z,107.20
2023-02-28T18:30:07.394Z,91.00
2023-02-28T18:32:55.335Z,80.00
2023-02-28T18:35:44.805Z,72.22
2023-02-28T18:38:32.603Z,59.45
2023-02-28T18:41:21.608Z,58.40
2023-02-28T18:44:19.139Z,62.90
2023-02-28T18:47:07.136Z,59.90
2023-02-28T18:49:54.658Z,54.55
2023-02-28T18:52:43.319Z,61.78
2023-02-28T18:55:32.781Z,71.90
2023-02-28T18:58:20.637Z,57.08
2023-02-28T19:01:18.656Z,53.13
2023-02-28T19:04:06.833Z,55.22
2023-02-28T19:06:54.429Z,47.05
2023-02-28T19:09:43.310Z,48.85
2023-02-28T19:12:34.539Z,46.90
2023-02-28T19:15:22.423Z,45.15
2023-02-28T19:18:10.174Z,51.88
2023-02-28T19:20:57.859Z,61.72
2023-02-28T19:23:45.856Z,66.13
2023-02-28T19:26:35.100Z,60.50
2023-02-28T19:29:23.021Z,58.85
2023-02-28T19:32:10.894Z,57.70
2023-02-28T19:34:58.621Z,58.38
2023-02-28T19:37:46.139Z,57.17
2023-02-28T19:40:33.489Z,44.72
2023-02-28T19:43:22.486Z,45.63
2023-02-28T19:46:12.040Z,46.88
2023-02-28T19:48:59.533Z,51.90
2023-02-28T19:51:47.065Z,43.30
2023-02-28T19:54:34.926Z,45.92
2023-02-28T19:57:22.364Z,50.38
2023-02-28T20:00:14.105Z,44.42
2023-02-28T20:03:02.336Z,56.65
2023-02-28T20:06:00.802Z,50.13
2023-02-28T20:08:48.106Z,45.78
2023-02-28T20:11:35.957Z,45.08
2023-02-28T20:14:23.494Z,42.60
2023-02-28T20:17:12.541Z,49.95
2023-02-28T20:19:59.948Z,70.90
2023-02-28T20:22:47.490Z,67.75
2023-02-28T20:25:35.265Z,65.85
2023-02-28T20:28:22.579Z,67.68
2023-02-28T20:31:14.552Z,58.38
2023-02-28T20:34:03.521Z,62.58
2023-02-28T20:36:51.183Z,53.60
2023-02-28T20:39:38.932Z,56.92
2023-02-28T20:42:26.480Z,51.38
2023-02-28T20:45:13.654Z,45.03
2023-02-28T20:48:01.009Z,49.83
2023-02-28T20:50:51.855Z,46.22
2023-02-28T20:53:39.831Z,43.85
2023-02-28T20:56:27.360Z,44.63
2023-02-28T20:59:15.132Z,53.28
2023-02-28T21:02:03.059Z,51.92
2023-02-28T21:04:50.303Z,49.08
2023-02-28T21:07:39.134Z,47.80
2023-02-28T21:10:26.459Z,43.35
2023-02-28T21:13:13.962Z,46.63
2023-02-28T21:16:05.339Z,44.78
2023-02-28T21:18:54.440Z,40.67
2023-02-28T21:21:44.282Z,45.42
2023-02-28T21:24:33.301Z,47.60
2023-02-28T21:27:21.143Z,42.80
2023-02-28T21:30:10.601Z,45.85
2023-02-28T21:32:58.428Z,46.35
2023-02-28T21:35:46.110Z,51.45
2023-02-28T21:38:34.957Z,47.22
2023-02-28T21:41:25.191Z,49.28
2023-02-28T21:44:18.428Z,48.63
2023-02-28T21:47:06.706Z,59.17
2023-02-28T21:49:54.303Z,59.75
2023-02-28T21:52:42.471Z,56.67
2023-02-28T21:55:29.975Z,50.35
2023-02-28T21:58:18.748Z,67.40
2023-02-28T22:01:07.377Z,65.05
2023-02-28T22:03:54.922Z,57.72
2023-02-28T22:06:42.658Z,51.83
2023-02-28T22:09:30.452Z,63.25
2023-02-28T22:12:18.109Z,76.32
2023-02-28T22:15:08.315Z,74.35
2023-02-28T22:17:55.918Z,89.35
2023-02-28T22:20:43.398Z,90.43
2023-02-28T22:23:31.195Z,76.95
2023-02-28T22:26:21.350Z,81.85
2023-02-28T22:29:09.067Z,72.40
2023-02-28T22:31:57.849Z,66.85
2023-02-28T22:34:45.589Z,58.53
2023-02-28T22:37:33.195Z,61.42
2023-02-28T22:40:20.972Z,52.92
2023-02-28T22:43:09.206Z,63.60
2023-02-28T22:45:56.870Z,60.35
2023-02-28T22:48:48.008Z,59.92
2023-02-28T22:51:35.845Z,53.15
2023-02-28T22:54:23.584Z,60.15
2023-02-28T22:57:11.910Z,61.97
2023-02-28T22:59:59.366Z,56.90
2023-02-28T23:02:47.353Z,69.82
2023-02-28T23:05:36.487Z,67.72
2023-02-28T23:08:23.911Z,76.43
2023-02-28T23:11:12.044Z,75.28
2023-02-28T23:14:00.001Z,80.53
2023-02-28T23:16:49.676Z,71.63
2023-02-28T23:19:37.544Z,74.25
2023-02-28T23:22:26.322Z,76.88
2023-02-28T23:25:14.290Z,78.13
2023-02-28T23:28:01.786Z,69.65
2023-02-28T23:30:49.439Z,71.18
2023-02-28T23:33:36.974Z,71.13
2023-02-28T23:36:25.181Z,72.82
2023-02-28T23:39:16.627Z,67.25
2023-02-28T23:42:04.259Z,73.65
2023-02-28T23:44:51.939Z,70.90
2023-02-28T23:47:39.356Z,71.53
2023-02-28T23:50:26.778Z,71.18
2023-02-28T23:53:14.073Z,70.00
2023-02-28T23:56:03.059Z,71.32
2023-02-28T23:58:51.413Z,61.17
